Time,TemperatureF,DewpointF,PressureIn,WindDirection,WindDirectionDegrees,WindSpeedMPH,WindSpeedGustMPH,Humidity,HourlyPrecipIn,Conditions,Clouds,dailyrainin,SoftwareType,DateUTC
2013-12-14 00:01:00,2.2,-1.5,30.39,West,261,0.0,0.0,84,0.00,,,0.00,WeatherCatV1.23B16,2013-12-14 05:01:00,
2013-12-14 00:06:00,2.1,-1.6,30.40,West,261,0.0,0.0,84,0.00,,,0.00,WeatherCatV1.23B16,2013-12-14 05:06:00,
2013-12-14 00:11:00,2.0,-1.7,30.40,West,261,0.0,0.0,84,0.00,,,0.00,WeatherCatV1.23B16,2013-12-14 05:11:00,
2013-12-14 00:16:00,2.0,-1.7,30.40,West,261,0.0,0.0,84,0.00,,,0.00,WeatherCatV1.23B16,2013-12-14 05:16:00,
2013-12-14 00:21:00,1.9,-1.8,30.40,West,261,0.0,0.0,84,0.00,,,0.00,WeatherCatV1.23B16,2013-12-14 05:21:00,
2013-12-14 00:26:00,1.8,-1.9,30.41,West,261,0.0,0.0,84,0.00,,,0.00,WeatherCatV1.23B16,2013-12-14 05:26:00,
2013-12-14 00:31:00,1.8,-1.9,30.41,West,261,0.0,0.0,84,0.00,,,0.00,WeatherCatV1.23B16,2013-12-14 05:31:00,
2013-12-14 00:36:00,1.8,-2.2,30.42,West,261,0.0,0.0,83,0.00,,,0.00,WeatherCatV1.23B16,2013-12-14 05:36:00,
2013-12-14 00:41:00,1.7,-2.2,30.42,West,261,0.0,0.0,83,0.00,,,0.00,WeatherCatV1.23B16,2013-12-14 05:41:00,
2013-12-14 00:46:00,1.7,-2.2,30.42,West,261,0.0,0.0,83,0.00,,,0.00,WeatherCatV1.23B16,2013-12-14 05:46:00,
2013-12-14 00:51:00,1.5,-2.4,30.42,West,261,0.0,0.0,83,0.00,,,0.00,WeatherCatV1.23B16,2013-12-14 05:51:00,
2013-12-14 00:56:00,1.3,-2.6,30.43,West,261,0.0,0.0,83,0.00,,,0.00,WeatherCatV1.23B16,2013-12-14 05:56:00,
2013-12-14 01:01:00,1.1,-2.8,30.43,West,261,0.0,0.0,83,0.00,,,0.00,WeatherCatV1.23B16,2013-12-14 06:01:00,
2013-12-14 01:06:00,1.0,-2.9,30.43,West,261,0.0,0.0,83,0.00,,,0.00,WeatherCatV1.23B16,2013-12-14 06:06:00,
2013-12-14 01:11:00,0.8,-3.1,30.44,West,261,0.0,0.0,83,0.00,,,0.00,WeatherCatV1.23B16,2013-12-14 06:11:00,
2013-12-14 01:16:00,0.6,-3.3,30.44,West,261,0.0,0.0,83,0.00,,,0.00,WeatherCatV1.23B16,2013-12-14 06:16:00,
2013-12-14 01:21:00,0.4,-3.5,30.44,West,261,0.0,0.0,83,0.00,,,0.00,WeatherCatV1.23B16,2013-12-14 06:21:00,
2013-12-14 01:26:00,0.2,-3.5,30.44,West,261,0.0,0.0,84,0.00,,,0.00,WeatherCatV1.23B16,2013-12-14 06:26:00,
2013-12-14 01:31:00,0.1,-3.6,30.44,West,261,0.0,0.0,84,0.00,,,0.00,WeatherCatV1.23B16,2013-12-14 06:31:00,
2013-12-14 01:36:00,0.0,-3.7,30.44,West,261,0.0,0.0,84,0.00,,,0.00,WeatherCatV1.23B16,2013-12-14 06:36:00,
2013-12-14 01:41:00,-0.1,-3.5,30.44,West,261,0.0,0.0,85,0.00,,,0.00,WeatherCatV1.23B16,2013-12-14 06:41:00,
2013-12-14 01:46:00,-0.3,-4.0,30.44,West,261,0.0,0.0,84,0.00,,,0.00,WeatherCatV1.23B16,2013-12-14 06:46:00,
2013-12-14 01:51:00,-0.4,-3.8,30.44,West,261,0.0,0.0,85,0.00,,,0.00,WeatherCatV1.23B16,2013-12-14 06:51:00,
2013-12-14 01:56:00,-0.5,-3.9,30.44,West,261,0.0,0.0,85,0.00,,,0.00,WeatherCatV1.23B16,2013-12-14 06:56:00,
2013-12-14 02:01:00,-0.7,-4.1,30.45,West,261,0.0,0.0,85,0.00,,,0.00,WeatherCatV1.23B16,2013-12-14 07:01:00,
2013-12-14 02:06:00,-0.8,-4.2,30.45,West,261,0.0,0.0,85,0.00,,,0.00,WeatherCatV1.23B16,2013-12-14 07:06:00,
2013-12-14 02:11:00,-1.0,-4.4,30.45,West,261,0.0,0.0,85,0.00,,,0.00,WeatherCatV1.23B16,2013-12-14 07:11:00,
2013-12-14 02:16:00,-1.1,-4.5,30.45,West,261,0.0,0.0,85,0.00,,,0.00,WeatherCatV1.23B16,2013-12-14 07:16:00,
2013-12-14 02:21:00,-1.2,-4.6,30.45,West,261,0.0,0.0,85,0.00,,,0.00,WeatherCatV1.23B16,2013-12-14 07:21:00,
2013-12-14 02:26:00,-1.3,-4.7,30.45,West,261,0.0,0.0,85,0.00,,,0.00,WeatherCatV1.23B16,2013-12-14 07:26:00,
2013-12-14 02:31:00,-1.4,-4.8,30.46,West,261,0.0,0.0,85,0.00,,,0.00,WeatherCatV1.23B16,2013-12-14 07:31:00,
2013-12-14 02:36:00,-1.5,-4.9,30.46,West,261,0.0,0.0,85,0.00,,,0.00,WeatherCatV1.23B16,2013-12-14 07:36:00,
2013-12-14 02:41:00,-1.6,-5.0,30.46,West,261,0.0,0.0,85,0.00,,,0.00,WeatherCatV1.23B16,2013-12-14 07:41:00,
2013-12-14 02:46:00,-1.7,-4.8,30.46,West,261,0.0,0.0,86,0.00,,,0.00,WeatherCatV1.23B16,2013-12-14 07:46:00,
2013-12-14 02:51:00,-1.7,-4.8,30.46,West,261,0.0,0.0,86,0.00,,,0.00,WeatherCatV1.23B16,2013-12-14 07:51:00,
2013-12-14 02:57:00,-1.8,-4.9,30.45,West,261,0.0,0.0,86,0.00,,,0.00,WeatherCatV1.23B16,2013-12-14 07:57:00,
2013-12-14 03:01:00,-1.8,-4.9,30.45,West,261,0.0,0.0,86,0.00,,,0.00,WeatherCatV1.23B16,2013-12-14 08:01:00,
2013-12-14 03:06:00,-1.8,-4.9,30.46,West,261,0.0,0.0,86,0.00,,,0.00,WeatherCatV1.23B16,2013-12-14 08:06:00,
2013-12-14 03:11:00,-1.8,-4.9,30.46,West,261,0.0,0.0,86,0.00,,,0.00,WeatherCatV1.23B16,2013-12-14 08:11:00,
2013-12-14 03:16:00,-1.8,-4.9,30.46,West,261,0.0,0.0,86,0.00,,,0.00,WeatherCatV1.23B16,2013-12-14 08:16:00,
2013-12-14 03:21:00,-1.8,-4.9,30.46,West,261,0.0,0.0,86,0.00,,,0.00,WeatherCatV1.23B16,2013-12-14 08:21:00,
2013-12-14 03:26:00,-1.8,-4.9,30.46,West,261,0.0,0.0,86,0.00,,,0.00,WeatherCatV1.23B16,2013-12-14 08:26:00,
2013-12-14 03:31:00,-1.8,-4.7,30.46,West,261,0.0,0.0,87,0.00,,,0.00,WeatherCatV1.23B16,2013-12-14 08:31:00,
2013-12-14 03:36:00,-1.7,-4.6,30.46,West,261,0.0,0.0,87,0.00,,,0.00,WeatherCatV1.23B16,2013-12-14 08:36:00,
2013-12-14 03:41:00,-1.7,-4.6,30.47,West,261,0.0,0.0,87,0.00,,,0.00,WeatherCatV1.23B16,2013-12-14 08:41:00,
2013-12-14 03:46:00,-1.7,-4.6,30.47,West,261,0.0,0.0,87,0.00,,,0.00,WeatherCatV1.23B16,2013-12-14 08:46:00,
2013-12-14 03:51:00,-1.6,-4.5,30.47,West,261,0.0,0.0,87,0.00,,,0.00,WeatherCatV1.23B16,2013-12-14 08:51:00,
2013-12-14 03:56:00,-1.5,-4.4,30.47,West,261,0.0,0.0,87,0.00,,,0.00,WeatherCatV1.23B16,2013-12-14 08:56:00,
2013-12-14 04:01:00,-1.4,-4.3,30.47,West,261,0.0,0.0,87,0.00,,,0.00,WeatherCatV1.23B16,2013-12-14 09:01:00,
2013-12-14 04:06:00,-1.3,-4.2,30.47,West,261,0.0,0.0,87,0.00,,,0.00,WeatherCatV1.23B16,2013-12-14 09:06:00,
2013-12-14 04:11:00,-1.2,-4.1,30.47,West,261,0.0,0.0,87,0.00,,,0.00,WeatherCatV1.23B16,2013-12-14 09:11:00,
2013-12-14 04:16:00,-1.2,-4.1,30.47,West,261,0.0,0.0,87,0.00,,,0.00,WeatherCatV1.23B16,2013-12-14 09:16:00,
2013-12-14 04:21:00,-1.1,-4.0,30.47,West,261,0.0,0.0,87,0.00,,,0.00,WeatherCatV1.23B16,2013-12-14 09:21:00,
2013-12-14 04:26:00,-0.9,-3.8,30.48,West,261,0.0,0.0,87,0.00,,,0.00,WeatherCatV1.23B16,2013-12-14 09:26:00,
2013-12-14 04:32:00,-0.9,-3.8,30.48,West,261,0.0,0.0,87,0.00,,,0.00,WeatherCatV1.23B16,2013-12-14 09:32:00,
2013-12-14 04:37:00,-0.8,-3.7,30.48,West,261,0.0,0.0,87,0.00,,,0.00,WeatherCatV1.23B16,2013-12-14 09:37:00,
2013-12-14 04:42:00,-0.7,-3.6,30.48,West,261,0.0,0.0,87,0.00,,,0.00,WeatherCatV1.23B16,2013-12-14 09:42:00,
2013-12-14 04:47:00,-0.6,-3.5,30.49,West,261,0.0,0.0,87,0.00,,,0.00,WeatherCatV1.23B16,2013-12-14 09:47:00,
2013-12-14 04:51:00,-0.5,-3.4,30.49,West,261,0.0,0.0,87,0.00,,,0.00,WeatherCatV1.23B16,2013-12-14 09:51:00,
2013-12-14 04:56:00,-0.5,-3.4,30.49,West,261,0.0,0.0,87,0.00,,,0.00,WeatherCatV1.23B16,2013-12-14 09:56:00,
2013-12-14 05:02:00,-0.5,-3.7,30.50,West,261,0.0,0.0,86,0.00,,,0.00,WeatherCatV1.23B16,2013-12-14 10:02:00,
2013-12-14 05:07:00,-0.5,-3.7,30.50,West,261,0.0,0.0,86,0.00,,,0.00,WeatherCatV1.23B16,2013-12-14 10:07:00,
2013-12-14 05:12:00,-0.5,-3.7,30.50,West,261,0.0,0.0,86,0.00,,,0.00,WeatherCatV1.23B16,2013-12-14 10:12:00,
2013-12-14 05:17:00,-0.5,-3.7,30.50,West,261,0.0,0.0,86,0.00,,,0.00,WeatherCatV1.23B16,2013-12-14 10:17:00,
2013-12-14 05:22:00,-0.6,-3.8,30.51,West,261,0.0,0.0,86,0.00,,,0.00,WeatherCatV1.23B16,2013-12-14 10:22:00,
2013-12-14 05:27:00,-0.5,-3.7,30.51,West,261,0.0,0.0,86,0.00,,,0.00,WeatherCatV1.23B16,2013-12-14 10:27:00,
2013-12-14 05:32:00,-0.5,-3.7,30.51,West,261,0.0,0.0,86,0.00,,,0.00,WeatherCatV1.23B16,2013-12-14 10:32:00,
2013-12-14 05:37:00,-0.5,-3.7,30.51,West,261,0.0,0.0,86,0.00,,,0.00,WeatherCatV1.23B16,2013-12-14 10:37:00,
2013-12-14 05:42:00,-0.6,-3.8,30.52,West,261,0.0,0.0,86,0.00,,,0.00,WeatherCatV1.23B16,2013-12-14 10:42:00,
2013-12-14 05:47:00,-0.7,-4.1,30.52,West,261,0.0,0.0,85,0.00,,,0.00,WeatherCatV1.23B16,2013-12-14 10:47:00,
2013-12-14 05:52:00,-0.8,-4.2,30.53,West,261,0.0,0.0,85,0.00,,,0.00,WeatherCatV1.23B16,2013-12-14 10:52:00,
2013-12-14 05:57:00,-0.8,-4.2,30.54,West,261,0.0,0.0,85,0.00,,,0.00,WeatherCatV1.23B16,2013-12-14 10:57:00,
2013-12-14 06:02:00,-0.9,-4.3,30.54,West,261,0.0,0.0,85,0.00,,,0.00,WeatherCatV1.23B16,2013-12-14 11:02:00,
2013-12-14 06:07:00,-1.0,-4.4,30.54,West,261,0.0,0.0,85,0.00,,,0.00,WeatherCatV1.23B16,2013-12-14 11:07:00,
2013-12-14 06:12:00,-1.1,-4.5,30.54,West,261,0.0,0.0,85,0.00,,,0.00,WeatherCatV1.23B16,2013-12-14 11:12:00,
2013-12-14 06:17:00,-1.1,-4.5,30.54,West,261,0.0,0.0,85,0.00,,,0.00,WeatherCatV1.23B16,2013-12-14 11:17:00,
2013-12-14 06:22:00,-1.2,-4.6,30.55,West,261,0.0,0.0,85,0.00,,,0.00,WeatherCatV1.23B16,2013-12-14 11:22:00,
2013-12-14 06:27:00,-1.3,-4.7,30.55,West,261,0.0,0.0,85,0.00,,,0.00,WeatherCatV1.23B16,2013-12-14 11:27:00,
2013-12-14 06:32:00,-1.4,-4.8,30.55,West,261,0.0,0.0,85,0.00,,,0.00,WeatherCatV1.23B16,2013-12-14 11:32:00,
2013-12-14 06:37:00,-1.5,-4.9,30.56,West,261,0.0,0.0,85,0.00,,,0.00,WeatherCatV1.23B16,2013-12-14 11:37:00,
2013-12-14 06:42:00,-1.6,-5.0,30.56,West,261,0.0,0.0,85,0.00,,,0.00,WeatherCatV1.23B16,2013-12-14 11:42:00,
2013-12-14 06:47:00,-1.7,-5.1,30.56,West,261,0.0,0.0,85,0.00,,,0.00,WeatherCatV1.23B16,2013-12-14 11:47:00,
2013-12-14 06:52:00,-1.7,-5.1,30.56,West,261,0.0,0.0,85,0.00,,,0.00,WeatherCatV1.23B16,2013-12-14 11:52:00,
2013-12-14 06:57:00,-1.8,-5.2,30.56,West,261,0.0,0.0,85,0.00,,,0.00,WeatherCatV1.23B16,2013-12-14 11:57:00,
2013-12-14 07:02:00,-1.9,-5.3,30.56,West,261,0.0,0.0,85,0.00,,,0.00,WeatherCatV1.23B16,2013-12-14 12:02:00,
2013-12-14 07:07:00,-1.9,-5.3,30.56,West,261,0.0,0.0,85,0.00,,,0.00,WeatherCatV1.23B16,2013-12-14 12:07:00,
2013-12-14 07:12:00,-2.0,-5.4,30.57,West,261,0.0,0.0,85,0.00,,,0.00,WeatherCatV1.23B16,2013-12-14 12:12:00,
2013-12-14 07:17:00,-2.1,-5.5,30.57,West,261,0.0,0.0,85,0.00,,,0.00,WeatherCatV1.23B16,2013-12-14 12:17:00,
2013-12-14 07:22:00,-2.1,-5.5,30.58,West,261,0.0,0.0,85,0.00,,,0.00,WeatherCatV1.23B16,2013-12-14 12:22:00,
2013-12-14 07:27:00,-2.2,-5.6,30.58,West,261,0.0,0.0,85,0.00,,,0.00,WeatherCatV1.23B16,2013-12-14 12:27:00,
2013-12-14 07:32:00,-2.2,-5.6,30.58,West,261,0.0,0.0,85,0.00,,,0.00,WeatherCatV1.23B16,2013-12-14 12:32:00,
2013-12-14 07:37:00,-2.3,-5.4,30.58,West,261,0.0,0.0,86,0.00,,,0.00,WeatherCatV1.23B16,2013-12-14 12:37:00,
2013-12-14 07:42:00,-2.2,-5.3,30.58,West,261,0.0,0.0,86,0.00,,,0.00,WeatherCatV1.23B16,2013-12-14 12:42:00,
2013-12-14 07:47:00,-2.2,-5.3,30.58,West,261,0.0,0.0,86,0.00,,,0.00,WeatherCatV1.23B16,2013-12-14 12:47:00,
2013-12-14 07:52:00,-2.1,-5.2,30.58,West,261,0.0,0.0,86,0.00,,,0.00,WeatherCatV1.23B16,2013-12-14 12:52:00,
2013-12-14 07:57:00,-2.0,-5.1,30.58,West,261,0.0,1.0,86,0.00,,,0.00,WeatherCatV1.23B16,2013-12-14 12:57:00,
2013-12-14 08:02:00,-1.8,-4.9,30.58,West,261,0.0,0.0,86,0.00,,,0.00,WeatherCatV1.23B16,2013-12-14 13:02:00,
2013-12-14 08:07:00,-1.6,-4.8,30.58,West,261,0.0,0.0,86,0.00,,,0.00,WeatherCatV1.23B16,2013-12-14 13:07:00,
2013-12-14 08:12:00,-0.9,-3.8,30.59,West,261,0.0,1.0,87,0.00,,,0.00,WeatherCatV1.23B16,2013-12-14 13:12:00,
2013-12-14 08:17:00,-0.1,-3.0,30.59,West,261,0.0,0.0,87,0.00,,,0.00,WeatherCatV1.23B16,2013-12-14 13:17:00,
2013-12-14 08:22:00,0.6,-2.3,30.59,West,261,0.0,0.0,87,0.00,,,0.00,WeatherCatV1.23B16,2013-12-14 13:22:00,
2013-12-14 08:27:00,1.4,-1.5,30.59,West,261,0.0,2.0,87,0.00,,,0.00,WeatherCatV1.23B16,2013-12-14 13:27:00,
2013-12-14 08:32:00,2.1,-0.9,30.59,West,261,0.0,0.0,87,0.00,,,0.00,WeatherCatV1.23B16,2013-12-14 13:32:00,
2013-12-14 08:37:00,3.1,-0.4,30.59,West,261,0.0,2.0,85,0.00,,,0.00,WeatherCatV1.23B16,2013-12-14 13:37:00,
2013-12-14 08:42:00,3.9,-0.1,30.59,West,261,1.0,2.0,83,0.00,,,0.00,WeatherCatV1.23B16,2013-12-14 13:42:00,
2013-12-14 08:47:00,4.7,0.2,30.59,West,261,2.0,2.0,81,0.00,,,0.00,WeatherCatV1.23B16,2013-12-14 13:47:00,
2013-12-14 08:52:00,5.5,0.4,30.59,West,261,0.0,2.0,79,0.00,,,0.00,WeatherCatV1.23B16,2013-12-14 13:52:00,
2013-12-14 08:57:00,6.1,-0.1,30.59,SE,139,0.0,1.0,75,0.00,,,0.00,WeatherCatV1.23B16,2013-12-14 13:57:00,
2013-12-14 09:02:00,6.5,-0.3,30.60,NE,41,3.0,4.0,73,0.00,,,0.00,WeatherCatV1.23B16,2013-12-14 14:02:00,
2013-12-14 09:07:00,6.9,-0.8,30.60,NNE,24,0.0,1.0,70,0.00,,,0.00,WeatherCatV1.23B16,2013-12-14 14:07:00,
2013-12-14 09:12:00,7.5,-0.5,30.60,North,349,1.0,1.0,69,0.00,,,0.00,WeatherCatV1.23B16,2013-12-14 14:12:00,
2013-12-14 09:17:00,8.4,-0.3,30.61,North,0,1.0,2.0,67,0.00,,,0.00,WeatherCatV1.23B16,2013-12-14 14:17:00,
2013-12-14 09:22:00,9.4,-0.3,30.61,NE,36,1.0,3.0,64,0.00,,,0.00,WeatherCatV1.23B16,2013-12-14 14:22:00,
2013-12-14 09:27:00,10.5,0.4,30.61,NNW,346,2.0,2.0,63,0.00,,,0.00,WeatherCatV1.23B16,2013-12-14 14:27:00,
2013-12-14 09:32:00,11.5,0.3,30.61,NNE,27,2.0,6.0,60,0.00,,,0.00,WeatherCatV1.23B16,2013-12-14 14:32:00,
2013-12-14 09:37:00,12.2,-0.5,30.61,NNW,340,0.0,4.0,56,0.00,,,0.00,WeatherCatV1.23B16,2013-12-14 14:37:00,
2013-12-14 09:42:00,12.8,-0.3,30.61,NW,325,3.0,4.0,55,0.00,,,0.00,WeatherCatV1.23B16,2013-12-14 14:42:00,
2013-12-14 09:47:00,13.3,-0.2,30.61,NNE,22,1.0,4.0,54,0.00,,,0.00,WeatherCatV1.23B16,2013-12-14 14:47:00,
2013-12-14 09:52:00,13.7,-0.2,30.61,NW,317,3.0,3.0,53,0.00,,,0.00,WeatherCatV1.23B16,2013-12-14 14:52:00,
2013-12-14 09:57:00,14.0,-1.2,30.61,NW,307,4.0,6.0,50,0.00,,,0.00,WeatherCatV1.23B16,2013-12-14 14:57:00,
2013-12-14 10:02:00,13.9,-1.7,30.61,NNW,345,3.0,5.0,49,0.00,,,0.00,WeatherCatV1.23B16,2013-12-14 15:02:00,
2013-12-14 10:07:00,13.9,-1.7,30.61,NNE,24,2.0,3.0,49,0.00,,,0.00,WeatherCatV1.23B16,2013-12-14 15:07:00,
2013-12-14 10:12:00,13.9,-2.1,30.62,NW,323,0.0,3.0,48,0.00,,,0.00,WeatherCatV1.23B16,2013-12-14 15:12:00,
2013-12-14 10:17:00,13.9,-1.7,30.62,NW,317,1.0,2.0,49,0.00,,,0.00,WeatherCatV1.23B16,2013-12-14 15:17:00,
2013-12-14 10:22:00,14.3,-0.9,30.62,North,355,2.0,5.0,50,0.00,,,0.00,WeatherCatV1.23B16,2013-12-14 15:22:00,
2013-12-14 10:27:00,14.7,-2.7,30.62,SE,125,0.0,6.0,45,0.00,,,0.00,WeatherCatV1.23B16,2013-12-14 15:27:00,
2013-12-14 10:32:00,14.6,-3.8,30.62,NNW,342,0.0,5.0,43,0.00,,,0.00,WeatherCatV1.23B16,2013-12-14 15:32:00,
2013-12-14 10:37:00,14.6,-2.4,30.62,NNW,342,0.0,0.0,46,0.00,,,0.00,WeatherCatV1.23B16,2013-12-14 15:37:00,
2013-12-14 10:42:00,15.2,-1.8,30.61,NNW,348,2.0,2.0,46,0.00,,,0.00,WeatherCatV1.23B16,2013-12-14 15:42:00,
2013-12-14 10:47:00,15.7,-1.8,30.61,NNE,21,0.0,1.0,45,0.00,,,0.00,WeatherCatV1.23B16,2013-12-14 15:47:00,
2013-12-14 10:52:00,15.9,-2.1,30.61,NW,315,2.0,4.0,44,0.00,,,0.00,WeatherCatV1.23B16,2013-12-14 15:52:00,
2013-12-14 10:57:00,16.2,-1.8,30.61,NW,314,0.0,1.0,44,0.00,,,0.00,WeatherCatV1.23B16,2013-12-14 15:57:00,
2013-12-14 11:02:00,16.4,-1.7,30.61,SE,131,0.0,3.0,44,0.00,,,0.00,WeatherCatV1.23B16,2013-12-14 16:02:00,
2013-12-14 11:07:00,16.7,-2.4,30.62,NE,56,0.0,2.0,42,0.00,,,0.00,WeatherCatV1.23B16,2013-12-14 16:07:00,
2013-12-14 11:12:00,16.7,-3.4,30.61,SE,141,0.0,0.0,40,0.00,,,0.00,WeatherCatV1.23B16,2013-12-14 16:12:00,
2013-12-14 11:17:00,16.7,-2.4,30.62,ENE,68,0.0,1.0,42,0.00,,,0.00,WeatherCatV1.23B16,2013-12-14 16:17:00,
2013-12-14 11:22:00,16.7,-2.9,30.61,ENE,68,0.0,0.0,41,0.00,,,0.00,WeatherCatV1.23B16,2013-12-14 16:22:00,
2013-12-14 11:27:00,16.5,-4.1,30.62,ENE,68,0.0,0.0,39,0.00,,,0.00,WeatherCatV1.23B16,2013-12-14 16:27:00,
2013-12-14 11:32:00,16.3,-3.2,30.62,ENE,68,0.0,1.0,41,0.00,,,0.00,WeatherCatV1.23B16,2013-12-14 16:32:00,
2013-12-14 11:37:00,16.1,-2.9,30.62,West,259,3.0,4.0,42,0.00,,,0.00,WeatherCatV1.23B16,2013-12-14 16:37:00,
2013-12-14 11:42:00,15.9,-4.1,30.61,SSW,194,2.0,2.0,40,0.00,,,0.00,WeatherCatV1.23B16,2013-12-14 16:42:00,
2013-12-14 11:47:00,15.6,-3.4,30.61,South,190,0.0,1.0,42,0.00,,,0.00,WeatherCatV1.23B16,2013-12-14 16:47:00,
2013-12-14 11:52:00,15.7,-3.8,30.61,SE,130,0.0,3.0,41,0.00,,,0.00,WeatherCatV1.23B16,2013-12-14 16:52:00,
2013-12-14 11:57:00,15.5,-5.0,30.61,South,180,0.0,1.0,39,0.00,,,0.00,WeatherCatV1.23B16,2013-12-14 16:57:00,
2013-12-14 12:02:00,14.9,-5.5,30.61,South,180,0.0,0.0,39,0.00,,,0.00,WeatherCatV1.23B16,2013-12-14 17:02:00,
2013-12-14 12:07:00,14.6,-5.8,30.60,ENE,57,0.0,4.0,39,0.00,,,0.00,WeatherCatV1.23B16,2013-12-14 17:07:00,
2013-12-14 12:12:00,14.5,-3.9,30.60,ESE,115,0.0,1.0,43,0.00,,,0.00,WeatherCatV1.23B16,2013-12-14 17:12:00,
2013-12-14 12:17:00,14.8,-3.6,30.61,SE,134,0.0,1.0,43,0.00,,,0.00,WeatherCatV1.23B16,2013-12-14 17:17:00,
2013-12-14 12:22:00,14.9,-4.0,30.61,ESE,119,0.0,1.0,42,0.00,,,0.00,WeatherCatV1.23B16,2013-12-14 17:22:00,
2013-12-14 12:27:00,14.9,-4.5,30.61,South,179,1.0,2.0,41,0.00,,,0.00,WeatherCatV1.23B16,2013-12-14 17:27:00,
2013-12-14 12:32:00,14.7,-5.2,30.60,South,179,0.0,2.0,40,0.00,,,0.00,WeatherCatV1.23B16,2013-12-14 17:32:00,
2013-12-14 12:37:00,14.7,-4.2,30.60,South,179,1.0,2.0,42,0.00,,,0.00,WeatherCatV1.23B16,2013-12-14 17:37:00,
2013-12-14 12:42:00,14.6,-4.3,30.60,South,179,0.0,0.0,42,0.00,,,0.00,WeatherCatV1.23B16,2013-12-14 17:42:00,
2013-12-14 12:47:00,14.7,-3.7,30.61,ESE,105,0.0,2.0,43,0.00,,,0.00,WeatherCatV1.23B16,2013-12-14 17:47:00,
2013-12-14 12:52:00,14.8,-4.1,30.60,NE,39,1.0,2.0,42,0.00,,,0.00,WeatherCatV1.23B16,2013-12-14 17:52:00,
2013-12-14 12:57:00,14.9,-3.0,30.60,NNE,19,0.0,0.0,44,0.00,,,0.00,WeatherCatV1.23B16,2013-12-14 17:57:00,
2013-12-14 13:02:00,14.9,-4.0,30.60,SSE,166,0.0,0.0,42,0.00,,,0.00,WeatherCatV1.23B16,2013-12-14 18:02:00,
2013-12-14 13:07:00,14.8,-3.6,30.60,SSE,166,0.0,1.0,43,0.00,,,0.00,WeatherCatV1.23B16,2013-12-14 18:07:00,
2013-12-14 13:12:00,15.0,-2.9,30.60,NE,44,0.0,3.0,44,0.00,,,0.00,WeatherCatV1.23B16,2013-12-14 18:12:00,
2013-12-14 13:17:00,15.3,-3.6,30.60,ESE,103,1.0,1.0,42,0.00,,,0.00,WeatherCatV1.23B16,2013-12-14 18:17:00,
2013-12-14 13:22:00,15.7,-2.8,30.60,ENE,76,2.0,3.0,43,0.00,,,0.00,WeatherCatV1.23B16,2013-12-14 18:22:00,
2013-12-14 13:27:00,16.0,-2.0,30.59,ENE,76,0.0,2.0,44,0.00,,,0.00,WeatherCatV1.23B16,2013-12-14 18:27:00,
2013-12-14 13:32:00,16.3,-1.8,30.59,ENE,58,0.0,2.0,44,0.00,,,0.00,WeatherCatV1.23B16,2013-12-14 18:32:00,
2013-12-14 13:37:00,17.0,-1.1,30.59,NE,46,2.0,3.0,44,0.00,,,0.00,WeatherCatV1.23B16,2013-12-14 18:37:00,
2013-12-14 13:42:00,17.3,-1.8,30.59,ENE,57,1.0,4.0,42,0.00,,,0.00,WeatherCatV1.23B16,2013-12-14 18:42:00,
2013-12-14 13:47:00,17.3,-1.8,30.59,ENE,57,0.0,0.0,42,0.00,,,0.00,WeatherCatV1.23B16,2013-12-14 18:47:00,
2013-12-14 13:52:00,17.1,-2.0,30.59,ENE,57,1.0,1.0,42,0.00,,,0.00,WeatherCatV1.23B16,2013-12-14 18:52:00,
2013-12-14 13:57:00,17.2,-0.9,30.59,ENE,57,0.0,2.0,44,0.00,,,0.00,WeatherCatV1.23B16,2013-12-14 18:57:00,
2013-12-14 14:02:00,17.3,-1.8,30.59,North,351,0.0,1.0,42,0.00,,,0.00,WeatherCatV1.23B16,2013-12-14 19:02:00,
2013-12-14 14:07:00,17.1,-1.5,30.59,NNE,15,0.0,0.0,43,0.00,,,0.00,WeatherCatV1.23B16,2013-12-14 19:07:00,
2013-12-14 14:12:00,16.6,-2.0,30.59,SW,217,0.0,2.0,43,0.00,,,0.00,WeatherCatV1.23B16,2013-12-14 19:12:00,
2013-12-14 14:17:00,16.2,-1.8,30.59,SE,132,0.0,1.0,44,0.00,,,0.00,WeatherCatV1.23B16,2013-12-14 19:17:00,
2013-12-14 14:22:00,15.8,-2.2,30.59,SSW,207,0.0,0.0,44,0.00,,,0.00,WeatherCatV1.23B16,2013-12-14 19:22:00,
2013-12-14 14:27:00,15.3,-1.7,30.59,SSW,207,0.0,0.0,46,0.00,,,0.00,WeatherCatV1.23B16,2013-12-14 19:27:00,
2013-12-14 14:32:00,15.2,-0.9,30.59,SSW,207,2.0,2.0,48,0.00,,,0.00,WeatherCatV1.23B16,2013-12-14 19:32:00,
2013-12-14 14:37:00,15.1,-1.0,30.58,SSW,207,0.0,0.0,48,0.00,,,0.00,WeatherCatV1.23B16,2013-12-14 19:37:00,
2013-12-14 14:42:00,15.0,-0.2,30.58,SSW,207,0.0,1.0,50,0.00,,,0.00,WeatherCatV1.23B16,2013-12-14 19:42:00,
2013-12-14 14:47:00,14.9,-1.2,30.58,SSW,207,0.0,2.0,48,0.00,,,0.00,WeatherCatV1.23B16,2013-12-14 19:47:00,
2013-12-14 14:52:00,14.9,0.1,30.58,NE,54,1.0,4.0,51,0.00,,,0.00,WeatherCatV1.23B16,2013-12-14 19:52:00,
2013-12-14 14:57:00,14.8,0.0,30.58,NE,55,0.0,1.0,51,0.00,,,0.00,WeatherCatV1.23B16,2013-12-14 19:57:00,
2013-12-14 15:02:00,14.8,0.8,30.58,ENE,58,0.0,1.0,53,0.00,,,0.00,WeatherCatV1.23B16,2013-12-14 20:02:00,
2013-12-14 15:07:00,14.7,1.1,30.58,ENE,58,0.0,1.0,54,0.00,,,0.00,WeatherCatV1.23B16,2013-12-14 20:07:00,
2013-12-14 15:12:00,14.7,1.1,30.58,ENE,58,0.0,0.0,54,0.00,,,0.00,WeatherCatV1.23B16,2013-12-14 20:12:00,
2013-12-14 15:17:00,14.6,0.6,30.58,ENE,58,0.0,0.0,53,0.00,,,0.00,WeatherCatV1.23B16,2013-12-14 20:17:00,
2013-12-14 15:22:00,14.4,0.8,30.59,ENE,58,0.0,0.0,54,0.00,,,0.00,WeatherCatV1.23B16,2013-12-14 20:22:00,
2013-12-14 15:27:00,14.3,0.7,30.59,ENE,58,0.0,0.0,54,0.00,,,0.00,WeatherCatV1.23B16,2013-12-14 20:27:00,
2013-12-14 15:32:00,14.1,1.3,30.58,ENE,58,0.0,0.0,56,0.00,,,0.00,WeatherCatV1.23B16,2013-12-14 20:32:00,
2013-12-14 15:37:00,14.0,1.2,30.59,ENE,58,0.0,1.0,56,0.00,,,0.00,WeatherCatV1.23B16,2013-12-14 20:37:00,
2013-12-14 15:42:00,13.9,0.4,30.58,ENE,58,0.0,0.0,54,0.00,,,0.00,WeatherCatV1.23B16,2013-12-14 20:42:00,
2013-12-14 15:47:00,13.8,1.4,30.59,ENE,58,0.0,0.0,57,0.00,,,0.00,WeatherCatV1.23B16,2013-12-14 20:47:00,
2013-12-14 15:52:00,13.7,0.6,30.59,ENE,58,0.0,0.0,55,0.00,,,0.00,WeatherCatV1.23B16,2013-12-14 20:52:00,
2013-12-14 15:57:00,13.6,2.7,30.59,ENE,58,0.0,0.0,61,0.00,,,0.00,WeatherCatV1.23B16,2013-12-14 20:57:00,
2013-12-14 16:02:00,13.5,0.4,30.59,ENE,58,0.0,0.0,55,0.00,,,0.00,WeatherCatV1.23B16,2013-12-14 21:02:00,
2013-12-14 16:07:00,13.4,1.0,30.59,ENE,58,0.0,0.0,57,0.00,,,0.00,WeatherCatV1.23B16,2013-12-14 21:07:00,
2013-12-14 16:12:00,13.4,1.8,30.59,ENE,58,0.0,0.0,59,0.00,,,0.00,WeatherCatV1.23B16,2013-12-14 21:12:00,
2013-12-14 16:17:00,13.4,1.8,30.58,ENE,58,0.0,1.0,59,0.00,,,0.00,WeatherCatV1.23B16,2013-12-14 21:17:00,
2013-12-14 16:22:00,13.3,2.4,30.57,ENE,58,0.0,1.0,61,0.00,,,0.00,WeatherCatV1.23B16,2013-12-14 21:22:00,
2013-12-14 16:27:00,13.2,2.3,30.57,ENE,58,0.0,0.0,61,0.00,,,0.00,WeatherCatV1.23B16,2013-12-14 21:27:00,
2013-12-14 16:32:00,13.2,2.0,30.57,ENE,58,0.0,1.0,60,0.00,,,0.00,WeatherCatV1.23B16,2013-12-14 21:32:00,
2013-12-14 16:37:00,13.2,2.0,30.57,NE,56,0.0,0.0,60,0.00,,,0.00,WeatherCatV1.23B16,2013-12-14 21:37:00,
2013-12-14 16:42:00,13.1,2.2,30.57,ENE,69,0.0,2.0,61,0.00,,,0.00,WeatherCatV1.23B16,2013-12-14 21:42:00,
2013-12-14 16:47:00,13.1,1.9,30.57,ENE,69,0.0,0.0,60,0.00,,,0.00,WeatherCatV1.23B16,2013-12-14 21:47:00,
2013-12-14 16:52:00,13.0,1.8,30.57,ENE,69,0.0,0.0,60,0.00,,,0.00,WeatherCatV1.23B16,2013-12-14 21:52:00,
2013-12-14 16:57:00,13.0,1.8,30.57,ENE,69,0.0,0.0,60,0.00,,,0.00,WeatherCatV1.23B16,2013-12-14 21:57:00,
2013-12-14 17:02:00,13.0,2.1,30.57,ENE,69,0.0,0.0,61,0.00,,,0.00,WeatherCatV1.23B16,2013-12-14 22:02:00,
2013-12-14 17:07:00,13.0,2.5,30.57,ENE,69,0.0,0.0,62,0.00,,,0.00,WeatherCatV1.23B16,2013-12-14 22:07:00,
2013-12-14 17:12:00,12.9,2.0,30.56,ENE,69,0.0,0.0,61,0.00,,,0.00,WeatherCatV1.23B16,2013-12-14 22:12:00,
2013-12-14 17:17:00,12.9,2.4,30.56,ENE,69,0.0,0.0,62,0.00,,,0.00,WeatherCatV1.23B16,2013-12-14 22:17:00,
2013-12-14 17:22:00,12.8,2.3,30.55,ENE,69,0.0,1.0,62,0.00,,,0.00,WeatherCatV1.23B16,2013-12-14 22:22:00,
2013-12-14 17:27:00,12.8,2.3,30.55,ENE,69,0.0,1.0,62,0.00,,,0.00,WeatherCatV1.23B16,2013-12-14 22:27:00,
2013-12-14 17:32:00,12.8,2.3,30.54,ENE,69,0.0,1.0,62,0.00,,,0.00,WeatherCatV1.23B16,2013-12-14 22:32:00,
2013-12-14 17:37:00,12.8,1.9,30.54,ENE,69,2.0,3.0,61,0.00,,,0.00,WeatherCatV1.23B16,2013-12-14 22:37:00,
2013-12-14 17:42:00,12.8,1.9,30.54,East,84,0.0,4.0,61,0.00,,,0.00,WeatherCatV1.23B16,2013-12-14 22:42:00,
2013-12-14 17:47:00,12.8,2.3,30.53,NNE,22,1.0,1.0,62,0.00,,,0.00,WeatherCatV1.23B16,2013-12-14 22:47:00,
2013-12-14 17:52:00,12.9,2.4,30.53,North,0,0.0,3.0,62,0.00,,,0.00,WeatherCatV1.23B16,2013-12-14 22:52:00,
2013-12-14 17:57:00,12.9,2.4,30.53,NE,34,2.0,3.0,62,0.00,,,0.00,WeatherCatV1.23B16,2013-12-14 22:57:00,
2013-12-14 18:02:00,13.0,1.8,30.53,North,11,0.0,4.0,60,0.00,,,0.00,WeatherCatV1.23B16,2013-12-14 23:02:00,
2013-12-14 18:07:00,13.0,2.1,30.54,ENE,63,3.0,4.0,61,0.00,,,0.00,WeatherCatV1.23B16,2013-12-14 23:07:00,
2013-12-14 18:12:00,13.0,1.8,30.53,NE,46,0.0,1.0,60,0.00,,,0.00,WeatherCatV1.23B16,2013-12-14 23:12:00,
2013-12-14 18:17:00,13.0,1.8,30.53,NNW,345,0.0,3.0,60,0.00,,,0.00,WeatherCatV1.23B16,2013-12-14 23:17:00,
2013-12-14 18:22:00,13.1,1.9,30.53,NE,44,2.0,5.0,60,0.00,,,0.00,WeatherCatV1.23B16,2013-12-14 23:22:00,
2013-12-14 18:27:00,13.1,1.5,30.53,NNE,23,0.0,0.0,59,0.00,,,0.00,WeatherCatV1.23B16,2013-12-14 23:27:00,
2013-12-14 18:32:00,13.1,1.9,30.53,East,80,2.0,5.0,60,0.00,,,0.00,WeatherCatV1.23B16,2013-12-14 23:32:00,
2013-12-14 18:37:00,13.1,1.9,30.51,North,355,2.0,3.0,60,0.00,,,0.00,WeatherCatV1.23B16,2013-12-14 23:37:00,
2013-12-14 18:42:00,13.1,1.9,30.51,NNE,31,0.0,1.0,60,0.00,,,0.00,WeatherCatV1.23B16,2013-12-14 23:42:00,
2013-12-14 18:47:00,13.2,2.3,30.50,NE,45,0.0,4.0,61,0.00,,,0.00,WeatherCatV1.23B16,2013-12-14 23:47:00,
2013-12-14 18:52:00,13.2,2.0,30.50,NE,50,3.0,5.0,60,0.00,,,0.00,WeatherCatV1.23B16,2013-12-14 23:52:00,
2013-12-14 18:57:00,13.1,1.9,30.49,NNE,22,0.0,2.0,60,0.00,,,0.00,WeatherCatV1.23B16,2013-12-14 23:57:00,
2013-12-14 19:02:00,13.1,2.6,30.49,NNE,20,2.0,8.0,62,0.00,,,0.00,WeatherCatV1.23B16,2013-12-15 00:02:00,
2013-12-14 19:07:00,13.0,3.2,30.50,NNW,343,2.0,5.0,64,0.00,,,0.00,WeatherCatV1.23B16,2013-12-15 00:07:00,
2013-12-14 19:12:00,12.9,3.7,30.50,East,81,2.0,3.0,66,0.00,,,0.00,WeatherCatV1.23B16,2013-12-15 00:12:00,
2013-12-14 19:17:00,12.8,4.0,30.49,ENE,59,1.0,2.0,67,0.00,,,0.00,WeatherCatV1.23B16,2013-12-15 00:17:00,
2013-12-14 19:22:00,12.8,4.3,30.50,ENE,60,0.0,2.0,68,0.00,,,0.00,WeatherCatV1.23B16,2013-12-15 00:22:00,
2013-12-14 19:27:00,12.8,4.6,30.50,ENE,78,5.0,9.0,69,0.00,,,0.00,WeatherCatV1.23B16,2013-12-15 00:27:00,
2013-12-14 19:32:00,12.8,4.6,30.50,NE,34,0.0,5.0,69,0.00,,,0.00,WeatherCatV1.23B16,2013-12-15 00:32:00,
2013-12-14 19:37:00,12.8,5.2,30.50,North,351,0.0,4.0,71,0.00,,,0.00,WeatherCatV1.23B16,2013-12-15 00:37:00,
2013-12-14 19:42:00,12.8,5.2,30.50,NNE,13,1.0,4.0,71,0.00,,,0.00,WeatherCatV1.23B16,2013-12-15 00:42:00,
2013-12-14 19:47:00,12.9,5.6,30.50,NNW,343,4.0,4.0,72,0.00,,,0.00,WeatherCatV1.23B16,2013-12-15 00:47:00,
2013-12-14 19:52:00,12.9,5.6,30.50,ENE,61,0.0,7.0,72,0.00,,,0.00,WeatherCatV1.23B16,2013-12-15 00:52:00,
2013-12-14 19:57:00,12.8,5.5,30.49,NNE,28,2.0,2.0,72,0.00,,,0.00,WeatherCatV1.23B16,2013-12-15 00:57:00,
2013-12-14 20:02:00,12.8,5.8,30.50,North,11,0.0,2.0,73,0.00,,,0.00,WeatherCatV1.23B16,2013-12-15 01:02:00,
2013-12-14 20:07:00,12.8,6.1,30.49,NE,51,3.0,4.0,74,0.00,,,0.00,WeatherCatV1.23B16,2013-12-15 01:07:00,
2013-12-14 20:12:00,12.6,6.5,30.49,NE,47,3.0,5.0,76,0.00,,,0.00,WeatherCatV1.23B16,2013-12-15 01:12:00,
2013-12-14 20:17:00,12.4,6.9,30.49,North,10,0.0,5.0,78,0.00,,,0.00,WeatherCatV1.23B16,2013-12-15 01:17:00,
2013-12-14 20:22:00,12.2,7.2,30.49,ENE,70,7.0,7.0,80,0.00,,,0.00,WeatherCatV1.23B16,2013-12-15 01:22:00,
2013-12-14 20:27:00,12.1,7.4,30.49,North,355,0.0,1.0,81,0.00,,,0.00,WeatherCatV1.23B16,2013-12-15 01:27:00,
2013-12-14 20:32:00,12.0,7.6,30.48,SE,128,0.0,4.0,82,0.00,,,0.00,WeatherCatV1.23B16,2013-12-15 01:32:00,
2013-12-14 20:37:00,11.8,7.4,30.47,North,350,2.0,4.0,82,0.00,,,0.00,WeatherCatV1.23B16,2013-12-15 01:37:00,
2013-12-14 20:42:00,11.8,7.7,30.46,NE,36,2.0,7.0,83,0.00,,,0.00,WeatherCatV1.23B16,2013-12-15 01:42:00,
2013-12-14 20:47:00,11.7,7.6,30.46,NE,51,5.0,7.0,83,0.00,,,0.00,WeatherCatV1.23B16,2013-12-15 01:47:00,
2013-12-14 20:52:00,11.6,7.7,30.46,ENE,64,1.0,5.0,84,0.00,,,0.00,WeatherCatV1.23B16,2013-12-15 01:52:00,
2013-12-14 20:57:00,11.5,7.6,30.45,NNE,24,1.0,4.0,84,0.00,,,0.00,WeatherCatV1.23B16,2013-12-15 01:57:00,
2013-12-14 21:02:00,11.4,7.8,30.45,ENE,67,2.0,3.0,85,0.00,,,0.00,WeatherCatV1.23B16,2013-12-15 02:02:00,
2013-12-14 21:07:00,11.4,7.8,30.45,ENE,71,2.0,2.0,85,0.00,,,0.00,WeatherCatV1.23B16,2013-12-15 02:07:00,
2013-12-14 21:12:00,11.3,7.7,30.45,NNE,23,1.0,6.0,85,0.00,,,0.00,WeatherCatV1.23B16,2013-12-15 02:12:00,
2013-12-14 21:17:00,11.3,7.9,30.44,North,0,5.0,6.0,86,0.00,,,0.00,WeatherCatV1.23B16,2013-12-15 02:17:00,
2013-12-14 21:22:00,11.3,7.9,30.44,NNW,340,1.0,4.0,86,0.00,,,0.00,WeatherCatV1.23B16,2013-12-15 02:22:00,
2013-12-14 21:27:00,11.3,7.9,30.44,NE,36,0.0,5.0,86,0.00,,,0.00,WeatherCatV1.23B16,2013-12-15 02:27:00,
2013-12-14 21:32:00,11.3,8.2,30.43,North,0,0.0,7.0,87,0.00,,,0.00,WeatherCatV1.23B16,2013-12-15 02:32:00,
2013-12-14 21:37:00,11.4,8.3,30.43,North,351,1.0,5.0,87,0.00,,,0.00,WeatherCatV1.23B16,2013-12-15 02:37:00,
2013-12-14 21:42:00,11.4,8.3,30.43,NNE,31,4.0,4.0,87,0.00,,,0.00,WeatherCatV1.23B16,2013-12-15 02:42:00,
2013-12-14 21:47:00,11.5,8.4,30.42,East,91,1.0,5.0,87,0.00,,,0.00,WeatherCatV1.23B16,2013-12-15 02:47:00,
2013-12-14 21:52:00,11.5,8.4,30.42,ENE,62,2.0,5.0,87,0.00,,,0.00,WeatherCatV1.23B16,2013-12-15 02:52:00,
2013-12-14 21:57:00,11.6,8.8,30.41,North,9,1.0,10.0,88,0.00,,,0.00,WeatherCatV1.23B16,2013-12-15 02:57:00,
2013-12-14 22:02:00,11.6,8.8,30.41,North,351,3.0,3.0,88,0.00,,,0.00,WeatherCatV1.23B16,2013-12-15 03:02:00,
2013-12-14 22:07:00,11.6,8.8,30.40,NE,34,1.0,3.0,88,0.00,,,0.00,WeatherCatV1.23B16,2013-12-15 03:07:00,
2013-12-14 22:12:00,11.7,8.9,30.40,ENE,78,1.0,7.0,88,0.00,,,0.00,WeatherCatV1.23B16,2013-12-15 03:12:00,
2013-12-14 22:17:00,11.7,8.9,30.40,NNW,343,2.0,4.0,88,0.00,,,0.00,WeatherCatV1.23B16,2013-12-15 03:17:00,
2013-12-14 22:22:00,11.7,8.9,30.40,NNE,21,2.0,4.0,88,0.00,,,0.00,WeatherCatV1.23B16,2013-12-15 03:22:00,
2013-12-14 22:27:00,11.7,8.9,30.41,North,11,3.0,4.0,88,0.00,,,0.00,WeatherCatV1.23B16,2013-12-15 03:27:00,
2013-12-14 22:32:00,11.8,8.9,30.40,North,11,0.0,2.0,88,0.00,,,0.00,WeatherCatV1.23B16,2013-12-15 03:32:00,
2013-12-14 22:37:00,11.8,8.9,30.40,NNE,28,0.0,5.0,88,0.00,,,0.00,WeatherCatV1.23B16,2013-12-15 03:37:00,
2013-12-14 22:42:00,11.9,9.0,30.40,North,11,0.0,1.0,88,0.00,,,0.00,WeatherCatV1.23B16,2013-12-15 03:42:00,
2013-12-14 22:47:00,11.9,9.0,30.40,North,355,2.0,7.0,88,0.00,,,0.00,WeatherCatV1.23B16,2013-12-15 03:47:00,
2013-12-14 22:52:00,12.0,9.1,30.39,NNE,12,0.0,10.0,88,0.00,,,0.00,WeatherCatV1.23B16,2013-12-15 03:52:00,
2013-12-14 22:57:00,12.0,9.1,30.39,NW,311,3.0,6.0,88,0.00,,,0.00,WeatherCatV1.23B16,2013-12-15 03:57:00,
2013-12-14 23:02:00,12.0,9.1,30.39,NNW,340,1.0,8.0,88,0.00,,,0.00,WeatherCatV1.23B16,2013-12-15 04:02:00,
2013-12-14 23:07:00,12.0,9.1,30.38,ENE,60,2.0,4.0,88,0.00,,,0.00,WeatherCatV1.23B16,2013-12-15 04:07:00,
2013-12-14 23:12:00,12.0,9.4,30.38,NNE,26,2.0,7.0,89,0.00,,,0.00,WeatherCatV1.23B16,2013-12-15 04:12:00,
2013-12-14 23:17:00,12.1,9.5,30.38,NW,307,0.0,3.0,89,0.00,,,0.00,WeatherCatV1.23B16,2013-12-15 04:17:00,
2013-12-14 23:22:00,12.1,9.5,30.37,ENE,63,2.0,4.0,89,0.00,,,0.00,WeatherCatV1.23B16,2013-12-15 04:22:00,
2013-12-14 23:27:00,12.1,9.5,30.37,NE,47,2.0,7.0,89,0.00,,,0.00,WeatherCatV1.23B16,2013-12-15 04:27:00,
2013-12-14 23:32:00,12.1,9.5,30.36,North,11,4.0,4.0,89,0.00,,,0.00,WeatherCatV1.23B16,2013-12-15 04:32:00,
2013-12-14 23:37:00,12.1,9.5,30.36,NNE,13,1.0,5.0,89,0.00,,,0.00,WeatherCatV1.23B16,2013-12-15 04:37:00,
2013-12-14 23:42:00,12.1,9.5,30.35,ENE,61,0.0,6.0,89,0.00,,,0.00,WeatherCatV1.23B16,2013-12-15 04:42:00,
2013-12-14 23:47:00,12.1,9.5,30.35,NE,50,3.0,4.0,89,0.00,,,0.00,WeatherCatV1.23B16,2013-12-15 04:47:00,
2013-12-14 23:52:00,12.1,9.5,30.35,NNE,31,2.0,10.0,89,0.00,,,0.00,WeatherCatV1.23B16,2013-12-15 04:52:00,
2013-12-14 23:57:00,12.1,9.5,30.33,NE,37,1.0,7.0,89,0.00,,,0.00,WeatherCatV1.23B16,2013-12-15 04:57:00,